Time;durP1;ratioP1;P1;durP2;ratioP2;P2;SDS_P1;SDS_P2;PMS_P1;PMS_P2;Temp;Humidity;BMP_temperature;BMP_pressure;BME280_temperature;BME280_humidity;BME280_pressure;Samples;Min_cycle;Max_cycle;Signal;HPM_P1;HPM_P2
2024/04/10 00:00:12;;;;;;;6.20;2.00;;;9.90;92.70;;;;;;4477994;26;20649;-57
2024/04/10 00:02:13;;;;;;;8.73;2.57;;;9.90;1.00;;;;;;4480882;26;20235;-57
2024/04/10 00:04:13;;;;;;;8.37;2.40;;;9.90;1.00;;;;;;4479487;26;20608;-58
2024/04/10 00:06:14;;;;;;;8.87;2.20;;;9.90;1.00;;;;;;4480412;26;20239;-58
2024/04/10 00:08:14;;;;;;;6.80;2.00;;;9.90;1.00;;;;;;4480684;26;20243;-58
2024/04/10 00:10:15;;;;;;;6.47;1.97;;;9.80;1.00;;;;;;4480135;26;20236;-57
2024/04/10 00:12:16;;;;;;;5.53;2.00;;;9.80;1.00;;;;;;4480269;26;20658;-57
2024/04/10 00:14:16;;;;;;;7.00;2.20;;;9.80;1.00;;;;;;4479543;26;20236;-57
2024/04/10 00:16:17;;;;;;;9.87;2.03;;;9.80;1.00;;;;;;4480278;26;20239;-57
2024/04/10 00:18:18;;;;;;;6.83;1.80;;;9.80;1.00;;;;;;4480335;26;20569;-57
2024/04/10 00:20:18;;;;;;;8.17;1.80;;;9.80;1.00;;;;;;4480106;26;20231;-57
2024/04/10 00:22:19;;;;;;;8.27;2.03;;;9.80;1.00;;;;;;4480148;26;20328;-57
2024/04/10 00:24:20;;;;;;;7.23;2.30;;;9.80;1.00;;;;;;4479383;26;20247;-58
2024/04/10 00:26:20;;;;;;;7.13;2.60;;;9.80;1.00;;;;;;4480165;26;20235;-57
2024/04/10 00:28:22;;;;;;;5.80;2.00;;;9.80;99.90;;;;;;4479955;26;20228;-57
2024/04/10 00:30:22;;;;;;;9.90;2.13;;;9.70;1.00;;;;;;4480360;26;20271;-57
2024/04/10 00:32:25;;;;;;;6.73;1.77;;;9.70;1.00;;;;;;4480178;26;20237;-57
2024/04/10 00:34:26;;;;;;;6.70;2.10;;;9.70;1.00;;;;;;4479253;26;20239;-58
2024/04/10 00:36:26;;;;;;;6.33;1.87;;;9.70;1.00;;;;;;4458074;26;20761;-57
2024/04/10 00:38:29;;;;;;;7.40;2.07;;;9.70;1.00;;;;;;4478479;26;20239;-57
2024/04/10 00:40:29;;;;;;;10.13;2.00;;;9.70;1.00;;;;;;4480041;26;20236;-57
2024/04/10 00:42:30;;;;;;;6.73;1.97;;;9.70;1.00;;;;;;4470240;26;20796;-57
2024/04/10 00:44:30;;;;;;;9.10;1.87;;;9.60;1.00;;;;;;4479359;26;20651;-57
2024/04/10 00:46:32;;;;;;;7.40;2.60;;;9.60;1.00;;;;;;4479843;26;20232;-57
2024/04/10 00:48:33;;;;;;;7.03;2.07;;;9.60;1.00;;;;;;4479896;26;20239;-57
2024/04/10 00:50:33;;;;;;;7.57;1.90;;;9.60;1.00;;;;;;4479884;26;20596;-57
2024/04/10 00:52:35;;;;;;;7.30;1.87;;;9.60;1.00;;;;;;4479344;26;20564;-57
2024/04/10 00:54:37;;;;;;;8.13;2.50;;;9.60;1.00;;;;;;4478791;26;20319;-56
2024/04/10 00:56:37;;;;;;;6.73;2.17;;;9.50;1.00;;;;;;4480099;26;20257;-57
2024/04/10 00:58:38;;;;;;;9.20;2.33;;;9.50;1.00;;;;;;4480008;26;20236;-57
2024/04/10 01:00:39;;;;;;;7.90;1.90;;;9.50;1.00;;;;;;4477189;26;20250;-58
2024/04/10 01:02:40;;;;;;;7.27;2.07;;;9.50;1.00;;;;;;4479719;26;20606;-57
2024/04/10 01:04:40;;;;;;;7.87;2.00;;;9.50;1.00;;;;;;4467659;26;20227;-58
2024/04/10 01:06:41;;;;;;;7.43;2.07;;;9.50;1.00;;;;;;4478225;26;20227;-58
2024/04/10 01:08:42;;;;;;;6.50;2.37;;;9.50;25.60;;;;;;4471416;26;20577;-57
2024/04/10 01:10:42;;;;;;;6.73;2.10;;;9.50;1.00;;;;;;4479348;26;20239;-57
2024/04/10 01:12:45;;;;;;;10.13;2.60;;;9.50;1.00;;;;;;4479670;26;20262;-57
2024/04/10 01:14:47;;;;;;;7.03;2.20;;;9.40;1.00;;;;;;4478984;26;20227;-57
2024/04/10 01:16:47;;;;;;;7.23;2.00;;;9.40;1.00;;;;;;4479831;26;20530;-57
2024/04/10 01:18:50;;;;;;;7.83;2.07;;;9.40;1.00;;;;;;4479493;26;20243;-57
2024/04/10 01:20:50;;;;;;;7.40;2.20;;;9.40;1.00;;;;;;4479530;26;20235;-57
2024/04/10 01:22:51;;;;;;;6.20;2.23;;;9.40;1.00;;;;;;4479667;26;20583;-56
2024/04/10 01:24:51;;;;;;;5.40;1.70;;;9.40;27.20;;;;;;4479003;26;20321;-57
2024/04/10 01:26:52;;;;;;;9.70;2.30;;;9.40;99.90;;;;;;4479598;26;20231;-57
2024/04/10 01:28:53;;;;;;;6.83;2.27;;;9.40;99.90;;;;;;4479437;26;20227;-57
2024/04/10 01:30:54;;;;;;;7.70;2.10;;;9.30;49.90;;;;;;4479302;26;20245;-57
2024/04/10 01:32:54;;;;;;;7.93;2.20;;;9.30;99.90;;;;;;4479487;26;20283;-57
2024/04/10 01:34:55;;;;;;;6.30;2.33;;;9.30;99.90;;;;;;4478113;26;20240;-57
2024/04/10 01:36:55;;;;;;;5.87;1.70;;;9.30;99.90;;;;;;4455549;26;20626;-57
2024/04/10 01:38:56;;;;;;;8.17;1.97;;;9.30;99.90;;;;;;4479522;26;20239;-57
2024/04/10 01:40:56;;;;;;;6.63;2.27;;;9.30;99.90;;;;;;4479287;26;20257;-59
2024/04/10 01:42:57;;;;;;;10.83;2.53;;;9.30;99.90;;;;;;4479328;26;20262;-57
2024/04/10 01:44:58;;;;;;;7.47;2.30;;;9.30;99.90;;;;;;4478292;26;20630;-58
2024/04/10 01:46:59;;;;;;;5.37;1.63;;;9.30;99.90;;;;;;4479913;26;20219;-57
2024/04/10 01:49:00;;;;;;;9.07;2.00;;;9.20;99.90;;;;;;4479309;26;20246;-57
2024/04/10 01:51:00;;;;;;;7.97;2.00;;;9.20;99.90;;;;;;4472274;26;21015;-56
2024/04/10 01:53:01;;;;;;;6.90;2.20;;;9.20;99.90;;;;;;4476074;26;20227;-57
2024/04/10 01:55:02;;;;;;;7.20;1.93;;;9.20;99.90;;;;;;4478276;26;20227;-57
2024/04/10 01:57:02;;;;;;;6.37;2.00;;;9.20;1.00;;;;;;4479281;26;20398;-57
2024/04/10 01:59:03;;;;;;;6.77;1.93;;;9.20;1.00;;;;;;4479575;26;20258;-57
2024/04/10 02:01:04;;;;;;;5.73;2.07;;;9.20;1.00;;;;;;4476448;26;20258;-57
2024/04/10 02:03:04;;;;;;;5.00;1.77;;;9.20;1.00;;;;;;4479133;26;20588;-57
2024/04/10 02:05:05;;;;;;;7.47;2.07;;;9.20;1.00;;;;;;4476694;26;20287;-57
2024/04/10 02:07:05;;;;;;;6.80;2.17;;;9.10;1.00;;;;;;4479674;26;20705;-57
2024/04/10 02:09:06;;;;;;;6.37;2.30;;;9.20;1.00;;;;;;4479078;26;20258;-57
2024/04/10 02:13:26;;;;;;;6.83;2.30;;;9.20;1.00;;;;;;4478973;26;20249;-57
2024/04/10 02:15:27;;;;;;;8.97;2.37;;;9.20;10.90;;;;;;4476236;26;20231;-57
2024/04/10 02:17:27;;;;;;;9.00;2.00;;;9.20;28.20;;;;;;4478813;26;20269;-57
2024/04/10 02:19:28;;;;;;;5.53;2.40;;;9.20;99.90;;;;;;4479154;26;20231;-57
2024/04/10 02:21:29;;;;;;;5.93;2.07;;;9.20;99.90;;;;;;4478987;26;20488;-57
2024/04/10 02:23:29;;;;;;;6.23;2.10;;;9.20;99.90;;;;;;4479066;26;20258;-57
2024/04/10 02:25:32;;;;;;;6.47;1.87;;;9.20;99.90;;;;;;4477875;26;20254;-57
2024/04/10 02:27:33;;;;;;;7.87;1.97;;;9.10;99.90;;;;;;4479217;26;20240;-57
2024/04/10 02:29:34;;;;;;;5.13;2.00;;;9.10;99.90;;;;;;4479185;26;20330;-57
2024/04/10 02:31:34;;;;;;;8.97;2.77;;;9.10;1.00;;;;;;4478782;26;20254;-57
2024/04/10 02:33:38;;;;;;;5.13;2.00;;;9.10;1.00;;;;;;4478554;26;20266;-57
2024/04/10 02:35:39;;;;;;;8.13;2.13;;;9.10;1.00;;;;;;4467640;26;20263;-57
2024/04/10 02:37:39;;;;;;;7.67;2.43;;;9.10;1.00;;;;;;4463801;26;20231;-57
2024/04/10 02:39:40;;;;;;;7.30;2.10;;;9.10;1.00;;;;;;4478544;26;20327;-57
2024/04/10 02:41:40;;;;;;;7.60;2.37;;;9.10;1.00;;;;;;4468360;26;20262;-57
2024/04/10 02:43:41;;;;;;;7.57;2.00;;;9.10;1.00;;;;;;4478358;26;20266;-57
2024/04/10 02:45:52;;;;;;;11.03;2.33;;;9.10;1.00;;;;;;4478165;26;20243;-57
2024/04/10 02:47:52;;;;;;;9.37;2.23;;;9.00;1.00;;;;;;4478833;26;20254;-56
2024/04/10 02:49:53;;;;;;;5.60;2.20;;;9.00;1.00;;;;;;4478616;26;20718;-57
2024/04/10 02:51:53;;;;;;;8.70;2.30;;;9.00;7.20;;;;;;4478707;26;20279;-57
2024/04/10 02:53:54;;;;;;;7.53;2.20;;;9.00;7.80;;;;;;4477611;26;20226;-57
2024/04/10 02:55:54;;;;;;;6.60;2.20;;;9.00;99.90;;;;;;4478268;26;20235;-57
2024/04/10 02:57:55;;;;;;;6.40;2.13;;;9.00;99.90;;;;;;4478210;26;20279;-57
2024/04/10 02:59:56;;;;;;;8.10;2.03;;;9.00;99.90;;;;;;4474476;26;20732;-57
2024/04/10 03:01:56;;;;;;;9.87;2.30;;;9.00;99.90;;;;;;4477608;26;20231;-57
2024/04/10 03:03:57;;;;;;;8.80;2.47;;;9.00;99.90;;;;;;4477578;26;20232;-57
2024/04/10 03:06:03;;;;;;;7.70;2.43;;;9.00;99.90;;;;;;4478266;26;20733;-57
2024/04/10 03:08:05;;;;;;;7.87;2.10;;;9.00;99.90;;;;;;4478511;26;20502;-56
2024/04/10 03:10:06;;;;;;;7.17;2.07;;;9.00;99.90;;;;;;4478547;26;20735;-57
2024/04/10 03:12:07;;;;;;;5.27;1.87;;;9.00;99.90;;;;;;4478674;26;20247;-57
2024/04/10 03:14:08;;;;;;;9.30;2.03;;;9.00;99.90;;;;;;4477173;26;20236;-57
2024/04/10 03:16:10;;;;;;;8.80;2.37;;;9.00;99.90;;;;;;4479482;26;20235;-57
2024/04/10 03:18:10;;;;;;;6.30;2.03;;;9.00;99.90;;;;;;4481185;26;20235;-57
2024/04/10 03:20:12;;;;;;;9.70;2.47;;;9.00;99.90;;;;;;4480730;26;20262;-57
2024/04/10 03:22:13;;;;;;;6.33;2.00;;;9.00;99.90;;;;;;4480886;26;20623;-57
2024/04/10 03:24:13;;;;;;;7.93;2.13;;;9.00;99.90;;;;;;4480298;26;20235;-57
2024/04/10 03:26:14;;;;;;;10.47;2.60;;;9.00;99.90;;;;;;4481138;26;20338;-57
2024/04/10 03:28:15;;;;;;;9.43;2.30;;;9.00;99.90;;;;;;4481273;26;20278;-57
2024/04/10 03:30:15;;;;;;;6.43;2.10;;;9.00;99.90;;;;;;4480833;26;20749;-57
2024/04/10 03:32:16;;;;;;;8.10;2.33;;;9.00;99.90;;;;;;4481228;26;20235;-57
2024/04/10 03:34:17;;;;;;;6.60;2.20;;;9.00;99.90;;;;;;4480084;26;20480;-57
2024/04/10 03:36:18;;;;;;;7.13;2.20;;;9.00;99.90;;;;;;4459141;26;20291;-57
2024/04/10 03:38:19;;;;;;;7.23;2.13;;;9.00;99.90;;;;;;4475434;26;20724;-57
2024/04/10 03:40:21;;;;;;;7.57;2.33;;;9.00;99.90;;;;;;4480644;26;20235;-57
2024/04/10 03:42:21;;;;;;;7.20;1.77;;;9.00;99.90;;;;;;4480660;26;20336;-57
2024/04/10 03:44:22;;;;;;;8.17;2.40;;;9.00;99.90;;;;;;4479943;26;20239;-57
2024/04/10 03:46:23;;;;;;;9.73;2.23;;;9.00;99.90;;;;;;4480514;26;20236;-57
2024/04/10 03:48:24;;;;;;;7.87;2.30;;;9.00;99.90;;;;;;4481186;26;20247;-57
2024/04/10 03:50:24;;;;;;;7.50;1.93;;;9.00;99.90;;;;;;4480742;26;20316;-57
2024/04/10 03:52:25;;;;;;;5.23;1.93;;;9.00;99.90;;;;;;4481326;26;20270;-57
2024/04/10 03:54:25;;;;;;;7.27;2.13;;;9.00;99.90;;;;;;4479875;26;20779;-57
2024/04/10 03:56:26;;;;;;;9.17;2.00;;;9.00;99.90;;;;;;4480594;26;20330;-57
2024/04/10 03:58:26;;;;;;;6.27;2.13;;;9.00;99.90;;;;;;4480753;26;20228;-57
2024/04/10 04:00:27;;;;;;;7.10;2.20;;;9.00;99.90;;;;;;4480267;26;20253;-56
2024/04/10 04:02:28;;;;;;;8.60;2.57;;;9.00;99.90;;;;;;4480355;26;20643;-57
2024/04/10 04:04:28;;;;;;;6.70;2.07;;;9.00;99.90;;;;;;4479430;26;20235;-57
2024/04/10 04:06:30;;;;;;;4.33;1.90;;;8.90;99.90;;;;;;4480267;26;20561;-57
2024/04/10 04:08:31;;;;;;;7.30;2.33;;;8.90;99.90;;;;;;4480586;26;20235;-57
2024/04/10 04:10:32;;;;;;;6.30;2.00;;;8.90;99.90;;;;;;4480683;26;20265;-57
2024/04/10 04:12:32;;;;;;;5.37;2.17;;;9.00;99.90;;;;;;4480700;26;20266;-57
2024/04/10 04:14:33;;;;;;;9.13;2.00;;;8.90;99.90;;;;;;4479938;26;20235;-57
2024/04/10 04:16:34;;;;;;;5.73;2.00;;;8.90;99.90;;;;;;4480234;26;20231;-57
2024/04/10 04:18:35;;;;;;;7.63;2.10;;;8.90;99.90;;;;;;4480624;26;20315;-58
2024/04/10 04:20:36;;;;;;;10.60;2.27;;;8.90;99.90;;;;;;4480178;26;20235;-58
2024/04/10 04:22:36;;;;;;;9.83;2.00;;;8.90;99.90;;;;;;4480146;26;20647;-58
2024/04/10 04:24:37;;;;;;;6.50;2.70;;;8.90;99.90;;;;;;4479413;26;20258;-57
2024/04/10 04:26:38;;;;;;;8.83;2.30;;;8.90;99.90;;;;;;4479814;26;20254;-57
2024/04/10 04:28:38;;;;;;;8.03;2.10;;;8.80;99.90;;;;;;4479371;26;20949;-57
2024/04/10 04:30:46;;;;;;;5.33;2.17;;;8.80;99.90;;;;;;4479929;26;20231;-58
2024/04/10 04:32:47;;;;;;;7.63;2.20;;;8.80;99.90;;;;;;4480572;26;20281;-58
2024/04/10 04:34:48;;;;;;;6.43;1.90;;;8.80;99.90;;;;;;4479816;26;20275;-57
2024/04/10 04:36:48;;;;;;;7.97;2.00;;;8.70;99.90;;;;;;4455116;26;20275;-58
2024/04/10 04:38:49;;;;;;;6.80;1.90;;;8.70;99.90;;;;;;4480130;26;20758;-58
2024/04/10 04:40:50;;;;;;;6.87;1.93;;;8.70;99.90;;;;;;4478267;26;20270;-58
2024/04/10 04:42:51;;;;;;;6.30;2.20;;;8.70;99.90;;;;;;4499591;26;20235;-58
2024/04/10 04:44:52;;;;;;;6.87;2.07;;;8.70;99.90;;;;;;4476401;26;20396;-58
2024/04/10 04:46:53;;;;;;;8.60;2.40;;;8.70;99.90;;;;;;4479976;26;20327;-57
2024/04/10 04:48:54;;;;;;;7.10;2.23;;;8.70;99.90;;;;;;4480104;26;20737;-57
2024/04/10 04:50:54;;;;;;;8.30;2.30;;;8.70;99.90;;;;;;4479927;26;20552;-57
2024/04/10 04:52:55;;;;;;;5.70;2.00;;;8.70;99.90;;;;;;4480048;26;20273;-57
2024/04/10 04:54:55;;;;;;;5.67;2.17;;;8.70;99.90;;;;;;4479585;26;20713;-58
2024/04/10 04:56:56;;;;;;;7.77;1.83;;;8.70;1.00;;;;;;4480322;26;20785;-58
2024/04/10 04:58:56;;;;;;;5.27;1.97;;;8.70;1.00;;;;;;4480032;26;20732;-57
2024/04/10 05:00:57;;;;;;;7.30;2.43;;;8.70;1.00;;;;;;4479401;26;20365;-58
2024/04/10 05:02:58;;;;;;;8.23;1.97;;;8.70;1.00;;;;;;4477675;26;20269;-58
2024/04/10 05:05:00;;;;;;;8.20;2.17;;;8.70;1.00;;;;;;4470903;26;20258;-58
2024/04/10 05:07:00;;;;;;;5.57;2.20;;;8.70;1.00;;;;;;4479817;26;20764;-57
2024/04/10 05:09:01;;;;;;;5.47;2.10;;;8.70;1.00;;;;;;4479417;26;20239;-58
2024/04/10 05:11:08;;;;;;;6.63;2.30;;;8.70;1.00;;;;;;4479638;26;20239;-57
2024/04/10 05:13:09;;;;;;;6.73;2.80;;;8.80;1.00;;;;;;4479901;26;20230;-58
2024/04/10 05:15:11;;;;;;;11.33;2.43;;;8.80;1.00;;;;;;4478866;26;20228;-58
2024/04/10 05:17:12;;;;;;;7.23;2.30;;;8.80;1.00;;;;;;4480427;26;20232;-58
2024/04/10 05:19:12;;;;;;;7.17;2.07;;;8.80;1.00;;;;;;4479908;26;20231;-58
2024/04/10 05:21:13;;;;;;;8.93;2.20;;;8.80;1.00;;;;;;4479645;26;20235;-58
2024/04/10 05:23:13;;;;;;;7.83;2.37;;;8.80;1.00;;;;;;4479703;26;20553;-58
2024/04/10 05:25:14;;;;;;;6.97;1.90;;;8.80;1.00;;;;;;4478570;26;20709;-58
2024/04/10 05:27:23;;;;;;;6.77;2.50;;;8.80;1.00;;;;;;4479549;26;20235;-57
2024/04/10 05:29:23;;;;;;;7.77;2.23;;;8.80;1.00;;;;;;4479676;26;20564;-58
2024/04/10 05:31:24;;;;;;;7.17;2.40;;;8.80;1.00;;;;;;4479395;26;20328;-58
2024/04/10 05:33:24;;;;;;;5.07;1.97;;;8.80;1.00;;;;;;4479218;26;20261;-58
2024/04/10 05:35:26;;;;;;;7.40;1.90;;;8.80;1.00;;;;;;4471815;26;20232;-58
2024/04/10 05:37:26;;;;;;;8.30;2.03;;;8.70;1.00;;;;;;4463139;26;20721;-58
2024/04/10 05:39:27;;;;;;;4.53;1.67;;;8.70;1.00;;;;;;4479704;26;20235;-58
2024/04/10 05:41:29;;;;;;;10.10;2.20;;;8.70;1.00;;;;;;4478930;26;20239;-58
2024/04/10 05:43:30;;;;;;;6.60;2.10;;;8.70;1.00;;;;;;4478513;26;20270;-58
2024/04/10 05:45:30;;;;;;;7.10;2.40;;;8.70;1.00;;;;;;4479264;26;20814;-58
2024/04/10 05:47:31;;;;;;;5.60;2.40;;;8.70;1.00;;;;;;4477496;26;20262;-58
2024/04/10 05:49:31;;;;;;;6.23;2.30;;;8.70;1.00;;;;;;4474047;26;20332;-58
2024/04/10 05:51:33;;;;;;;6.53;2.27;;;8.70;1.00;;;;;;4455152;26;20224;-58
2024/04/10 05:53:33;;;;;;;7.20;2.13;;;8.70;1.00;;;;;;4478339;26;20293;-58
2024/04/10 05:55:34;;;;;;;7.57;2.20;;;8.70;1.00;;;;;;4479242;26;20634;-58
2024/04/10 05:57:35;;;;;;;8.43;2.50;;;8.70;1.00;;;;;;4477837;26;20267;-58
2024/04/10 05:59:35;;;;;;;6.33;2.57;;;8.70;1.00;;;;;;4479513;26;20286;-58
2024/04/10 06:01:36;;;;;;;7.73;2.20;;;8.70;1.00;;;;;;4476806;26;20276;-57
2024/04/10 06:03:36;;;;;;;9.27;2.30;;;8.80;1.00;;;;;;4478298;26;20257;-58
2024/04/10 06:05:37;;;;;;;5.93;2.27;;;8.80;1.00;;;;;;4479199;26;20239;-58
2024/04/10 06:07:42;;;;;;;7.33;2.23;;;8.80;1.00;;;;;;4479150;26;20239;-58
2024/04/10 06:09:42;;;;;;;7.88;2.25;;;8.80;1.00;;;;;;4103985;26;10000566;-57
2024/04/10 06:11:43;;;;;;;9.40;2.87;;;8.90;1.00;;;;;;4473170;26;20231;-58
2024/04/10 06:13:47;;;;;;;5.97;2.40;;;9.00;1.00;;;;;;4474791;26;20335;-58
2024/04/10 06:16:03;;;;;;;9.40;2.60;;;9.00;1.00;;;;;;4463661;26;21157;-58
2024/04/10 06:18:04;;;;;;;7.13;2.50;;;9.00;1.00;;;;;;4463711;26;20254;-57
2024/04/10 06:20:07;;;;;;;7.83;2.33;;;9.00;1.00;;;;;;4461061;26;20237;-57
2024/04/10 06:22:07;;;;;;;7.67;2.20;;;9.00;1.00;;;;;;4472147;26;20231;-59
2024/04/10 06:24:08;;;;;;;4.83;2.17;;;9.00;1.00;;;;;;4474475;26;20672;-59
2024/04/10 06:26:09;;;;;;;5.30;1.83;;;9.00;1.00;;;;;;4475455;26;20307;-58
2024/04/10 06:28:09;;;;;;;6.00;1.80;;;9.00;1.00;;;;;;4475179;26;20231;-59
2024/04/10 06:30:10;;;;;;;4.77;2.00;;;9.00;1.00;;;;;;4474988;26;20219;-58
2024/04/10 06:32:12;;;;;;;7.40;2.20;;;9.00;1.00;;;;;;4475276;26;20616;-58
2024/04/10 06:34:13;;;;;;;5.03;1.70;;;9.00;1.00;;;;;;4469740;26;20693;-58
2024/04/10 06:36:13;;;;;;;6.73;2.20;;;9.00;1.00;;;;;;4456059;26;20288;-58
2024/04/10 06:38:14;;;;;;;5.90;2.17;;;9.00;1.00;;;;;;4474081;26;20657;-58
2024/04/10 06:40:14;;;;;;;5.30;1.93;;;9.10;1.00;;;;;;4475132;26;20327;-58
2024/04/10 06:42:15;;;;;;;6.13;1.90;;;9.10;1.00;;;;;;4465123;26;20342;-58
2024/04/10 06:44:16;;;;;;;7.13;2.00;;;9.20;1.00;;;;;;4474716;26;20830;-58
2024/04/10 06:46:17;;;;;;;5.97;2.30;;;9.20;1.00;;;;;;4474486;26;20278;-58
2024/04/10 06:48:17;;;;;;;8.30;2.00;;;9.20;1.00;;;;;;4452933;26;20576;-57
2024/04/10 06:50:18;;;;;;;6.23;2.13;;;9.30;1.00;;;;;;4449311;26;20225;-58
2024/04/10 06:52:18;;;;;;;9.07;2.03;;;9.30;1.00;;;;;;4451311;26;20232;-58
2024/04/10 06:54:21;;;;;;;5.63;2.17;;;9.40;1.00;;;;;;4451371;26;20699;-58
2024/04/10 06:56:23;;;;;;;5.77;1.67;;;9.40;1.00;;;;;;4474193;26;20356;-58
2024/04/10 06:58:24;;;;;;;7.23;2.23;;;9.50;1.00;;;;;;4457344;26;20582;-58
2024/04/10 07:00:25;;;;;;;6.57;2.07;;;9.60;1.00;;;;;;4471069;26;20274;-59
2024/04/10 07:02:25;;;;;;;6.77;2.03;;;9.60;1.00;;;;;;4475155;26;20630;-58
2024/04/10 07:04:26;;;;;;;4.80;1.83;;;9.70;99.90;;;;;;4476585;26;20235;-59
2024/04/10 07:06:27;;;;;;;4.20;2.00;;;9.80;1.00;;;;;;4476337;26;20235;-59
2024/04/10 07:08:28;;;;;;;5.43;2.10;;;9.80;99.90;;;;;;4478506;26;20231;-58
2024/04/10 07:10:28;;;;;;;7.77;1.97;;;9.90;1.00;;;;;;4478185;26;20231;-58
2024/04/10 07:12:29;;;;;;;5.40;2.20;;;9.90;99.90;;;;;;4478075;26;20337;-58
2024/04/10 07:14:34;;;;;;;5.53;1.93;;;9.90;99.90;;;;;;4477485;26;20602;-58
2024/04/10 07:16:34;;;;;;;8.17;2.00;;;9.80;1.00;;;;;;4478005;26;20231;-59
2024/04/10 07:18:35;;;;;;;7.03;2.30;;;9.80;49.10;;;;;;4478146;26;20328;-58
2024/04/10 07:20:36;;;;;;;7.03;2.10;;;9.80;1.00;;;;;;4477895;26;20274;-58
2024/04/10 07:22:36;;;;;;;6.93;2.23;;;9.70;57.30;;;;;;4478627;26;21991;-58
2024/04/10 07:24:37;;;;;;;8.40;2.20;;;9.70;99.90;;;;;;4477535;26;20299;-59
2024/04/10 07:26:38;;;;;;;5.83;1.90;;;9.70;99.90;;;;;;4478074;26;20600;-59
2024/04/10 07:28:44;;;;;;;9.10;2.13;;;9.80;4.50;;;;;;4478221;26;20258;-59
2024/04/10 07:30:48;;;;;;;6.07;2.03;;;9.80;86.00;;;;;;4465503;26;20227;-58
2024/04/10 07:32:49;;;;;;;6.77;2.07;;;9.80;1.00;;;;;;4477882;26;20615;-58
2024/04/10 07:34:49;;;;;;;7.63;2.30;;;9.80;1.00;;;;;;4476998;26;20269;-58
2024/04/10 07:36:50;;;;;;;7.67;2.20;;;9.80;1.00;;;;;;4453284;26;20232;-59
2024/04/10 07:38:53;;;;;;;6.93;2.37;;;9.90;99.90;;;;;;4477653;26;20695;-58
2024/04/10 07:40:55;;;;;;;5.97;2.50;;;9.90;1.00;;;;;;4475151;26;20243;-58
2024/04/10 07:42:55;;;;;;;6.43;2.30;;;10.00;1.00;;;;;;4470678;26;20235;-59
2024/04/10 07:44:56;;;;;;;5.67;1.80;;;10.00;1.00;;;;;;4476919;26;20283;-59
2024/04/10 07:46:56;;;;;;;7.43;2.50;;;10.00;1.00;;;;;;4477862;26;20224;-59
2024/04/10 07:48:58;;;;;;;4.63;1.90;;;10.00;99.90;;;;;;4477886;26;20240;-59
2024/04/10 07:51:01;;;;;;;8.53;2.77;;;10.00;1.00;;;;;;4477996;26;20294;-58
2024/04/10 07:53:02;;;;;;;4.60;1.83;;;10.10;99.90;;;;;;4477097;26;20561;-59
2024/04/10 07:55:02;;;;;;;8.40;2.53;;;10.10;99.90;;;;;;4476629;26;20316;-58
2024/04/10 07:57:03;;;;;;;8.60;2.60;;;10.20;99.90;;;;;;4477899;26;20247;-58
2024/04/10 07:59:04;;;;;;;8.60;2.17;;;10.20;99.90;;;;;;4477599;26;20713;-58
2024/04/10 08:01:05;;;;;;;7.80;2.10;;;10.20;99.90;;;;;;4477124;26;20231;-59
2024/04/10 08:03:06;;;;;;;5.60;2.20;;;10.20;1.00;;;;;;4480079;26;20231;-58
2024/04/10 08:05:09;;;;;;;6.30;2.20;;;10.20;99.90;;;;;;4480422;26;20281;-58
2024/04/10 08:07:10;;;;;;;7.40;2.87;;;10.30;1.00;;;;;;4480190;26;20309;-58
2024/04/10 08:09:11;;;;;;;8.10;2.43;;;10.30;1.00;;;;;;4480496;26;20231;-58
2024/04/10 08:11:13;;;;;;;5.70;2.17;;;10.30;1.00;;;;;;4480402;26;20236;-58
2024/04/10 08:13:14;;;;;;;7.20;2.40;;;10.40;1.00;;;;;;4479979;26;20566;-58
2024/04/10 08:15:15;;;;;;;6.60;2.10;;;10.40;99.90;;;;;;4480277;26;20235;-58
2024/04/10 08:17:15;;;;;;;6.47;1.93;;;10.50;99.90;;;;;;4480418;26;20243;-58
2024/04/10 08:19:16;;;;;;;6.13;2.33;;;10.50;99.90;;;;;;4480265;26;20228;-59
2024/04/10 08:21:16;;;;;;;6.03;2.47;;;10.50;1.00;;;;;;4479888;26;20223;-58
2024/04/10 08:23:17;;;;;;;6.57;2.33;;;10.60;1.00;;;;;;4479139;26;20283;-59
2024/04/10 08:25:18;;;;;;;6.60;2.00;;;10.60;99.90;;;;;;4480158;26;20438;-59
2024/04/10 08:27:18;;;;;;;5.33;2.47;;;10.60;1.00;;;;;;4480609;26;20239;-59
2024/04/10 08:29:19;;;;;;;7.20;2.37;;;10.70;1.00;;;;;;4480141;26;20712;-58
2024/04/10 08:31:22;;;;;;;8.00;2.30;;;10.70;1.00;;;;;;4480177;26;20388;-59
2024/04/10 08:33:26;;;;;;;7.23;2.40;;;10.70;1.00;;;;;;4479199;26;20716;-58
2024/04/10 08:35:26;;;;;;;6.00;2.50;;;10.80;99.90;;;;;;4472992;26;20228;-59
2024/04/10 08:37:27;;;;;;;6.03;2.10;;;10.80;1.00;;;;;;4463690;26;20249;-58
2024/04/10 08:39:27;;;;;;;7.10;2.20;;;10.90;1.00;;;;;;4480356;26;20235;-59
2024/04/10 08:41:28;;;;;;;5.53;2.40;;;11.00;99.90;;;;;;4479755;26;20236;-59
2024/04/10 08:43:35;;;;;;;6.77;2.50;;;11.10;1.00;;;;;;4479146;26;20286;-59
2024/04/10 08:45:35;;;;;;;5.87;2.33;;;11.20;1.00;;;;;;4480039;26;20231;-59
2024/04/10 08:47:36;;;;;;;6.17;2.13;;;11.20;99.90;;;;;;4480454;26;20275;-59
2024/04/10 08:49:39;;;;;;;5.67;2.47;;;11.30;1.00;;;;;;4479877;26;20251;-58
2024/04/10 08:51:41;;;;;;;6.13;2.40;;;11.40;1.00;;;;;;4479321;26;20705;-58
2024/04/10 08:53:46;;;;;;;7.43;2.37;;;11.40;99.90;;;;;;4478973;26;20693;-58
2024/04/10 08:55:47;;;;;;;6.20;2.57;;;11.50;1.00;;;;;;4468544;26;20239;-58
2024/04/10 08:57:47;;;;;;;5.30;2.03;;;11.50;99.90;;;;;;4461105;26;20678;-59
2024/04/10 08:59:48;;;;;;;5.53;1.97;;;11.50;99.90;;;;;;4474246;26;20223;-59
2024/04/10 09:01:48;;;;;;;6.07;2.40;;;11.60;99.90;;;;;;4470368;26;20283;-59
2024/04/10 09:03:49;;;;;;;4.43;2.30;;;11.60;99.90;;;;;;4471041;26;20239;-58
2024/04/10 09:05:49;;;;;;;7.87;1.97;;;11.60;1.00;;;;;;4481278;26;20265;-59
2024/04/10 09:07:58;;;;;;;5.47;2.10;;;11.50;43.70;;;;;;4489860;26;20238;-58
2024/04/10 09:10:16;;;;;;;5.13;1.80;;;11.50;16.70;;;;;;4490340;26;20235;-58
2024/04/10 09:12:26;;;;;;;5.93;2.20;;;11.50;99.90;;;;;;4477600;26;20796;-58
2024/04/10 09:14:27;;;;;;;5.80;2.10;;;11.60;1.00;;;;;;4476027;26;20239;-59
2024/04/10 09:16:28;;;;;;;6.90;2.30;;;11.60;99.90;;;;;;4477268;26;20324;-59
2024/04/10 09:18:28;;;;;;;4.43;1.90;;;11.60;1.00;;;;;;4470648;26;20700;-58
2024/04/10 09:20:29;;;;;;;8.10;2.40;;;11.60;7.90;;;;;;4477196;26;20713;-59
2024/04/10 09:22:30;;;;;;;4.87;2.07;;;11.60;1.00;;;;;;4476849;26;20250;-59
2024/04/10 09:24:30;;;;;;;6.47;1.97;;;11.80;34.90;;;;;;4476601;26;20261;-58
2024/04/10 09:26:31;;;;;;;5.63;1.70;;;11.80;1.00;;;;;;4482927;26;20635;-58
2024/04/10 09:28:32;;;;;;;6.03;2.10;;;11.90;1.00;;;;;;4477482;26;20313;-59
2024/04/10 09:30:35;;;;;;;3.23;1.83;;;12.00;1.00;;;;;;4477583;26;20796;-59
2024/04/10 09:32:36;;;;;;;6.30;1.90;;;12.10;1.00;;;;;;4477393;26;20231;-59
2024/04/10 09:34:39;;;;;;;6.27;1.63;;;12.20;99.90;;;;;;4476408;26;20325;-59
2024/04/10 09:36:40;;;;;;;8.50;2.03;;;12.20;1.00;;;;;;4482452;26;20556;-58
2024/04/10 09:38:41;;;;;;;4.50;1.90;;;12.20;1.00;;;;;;4477195;26;20266;-58
2024/04/10 09:40:50;;;;;;;7.40;2.13;;;12.30;99.90;;;;;;4476742;26;20235;-59
2024/04/10 09:43:00;;;;;;;4.27;1.70;;;12.30;99.90;;;;;;4474780;26;20247;-59
2024/04/10 09:45:12;;;;;;;6.50;1.87;;;12.40;99.90;;;;;;4476249;26;20239;-59
2024/04/10 09:47:16;;;;;;;4.73;1.87;;;12.40;99.90;;;;;;4477133;26;20765;-59
2024/04/10 09:49:21;;;;;;;4.10;1.73;;;12.60;1.00;;;;;;4477353;26;20227;-58
2024/04/10 09:51:22;;;;;;;5.53;1.70;;;12.60;99.90;;;;;;4476930;26;20253;-59
2024/04/10 09:53:23;;;;;;;4.87;1.90;;;12.60;99.90;;;;;;4476139;26;20705;-59
2024/04/10 09:55:24;;;;;;;6.10;1.97;;;12.60;99.90;;;;;;4476678;26;20324;-59
2024/04/10 09:57:25;;;;;;;5.30;1.87;;;12.60;99.90;;;;;;4473867;26;20239;-59
2024/04/10 09:59:26;;;;;;;4.77;1.60;;;12.60;1.00;;;;;;4476799;26;20659;-59
2024/04/10 10:01:27;;;;;;;6.57;1.90;;;12.60;1.00;;;;;;4475729;26;20231;-59
2024/04/10 10:03:27;;;;;;;5.70;1.60;;;12.70;99.90;;;;;;4474896;26;20239;-59
2024/04/10 10:05:28;;;;;;;6.50;1.93;;;12.70;1.00;;;;;;4476791;26;20265;-59
2024/04/10 10:07:29;;;;;;;7.70;1.90;;;12.70;1.00;;;;;;4476221;26;20231;-59
2024/04/10 10:09:30;;;;;;;4.00;1.90;;;12.60;1.00;;;;;;4476825;26;20320;-59
2024/04/10 10:11:31;;;;;;;3.07;1.57;;;12.40;99.90;;;;;;4469458;26;20239;-59
2024/04/10 10:13:42;;;;;;;4.93;1.80;;;12.30;1.00;;;;;;4475800;26;20227;-59
2024/04/10 10:15:43;;;;;;;8.63;2.20;;;12.30;99.90;;;;;;4476436;26;20223;-58
2024/04/10 10:17:52;;;;;;;3.93;1.50;;;12.20;99.90;;;;;;4476581;26;20742;-59
2024/04/10 10:19:53;;;;;;;4.57;1.83;;;12.30;99.90;;;;;;4476399;26;20230;-58
2024/04/10 10:21:59;;;;;;;3.37;1.60;;;12.50;99.90;;;;;;4476347;26;20235;-59
2024/04/10 10:24:06;;;;;;;4.17;1.50;;;12.60;99.90;;;;;;4475495;26;20281;-59
2024/04/10 10:26:11;;;;;;;5.13;1.33;;;12.60;99.90;;;;;;4469858;26;20235;-59
2024/04/10 10:28:11;;;;;;;4.97;1.50;;;12.70;1.00;;;;;;4476271;26;20243;-59
2024/04/10 10:30:12;;;;;;;5.10;1.53;;;12.80;1.00;;;;;;4475737;26;20275;-59
2024/04/10 10:32:13;;;;;;;3.40;1.40;;;12.90;1.00;;;;;;4476638;26;20567;-58
2024/04/10 10:34:16;;;;;;;6.00;1.50;;;13.00;1.00;;;;;;4480126;26;20235;-58
2024/04/10 10:36:17;;;;;;;3.80;1.80;;;13.10;1.00;;;;;;4474717;26;20250;-62
2024/04/10 10:38:17;;;;;;;5.67;1.73;;;13.00;99.90;;;;;;4475955;26;20227;-62
2024/04/10 10:40:18;;;;;;;3.00;1.43;;;12.80;99.90;;;;;;4475819;26;20265;-62
2024/04/10 10:42:18;;;;;;;4.73;1.60;;;12.70;99.90;;;;;;4475684;26;20768;-62
2024/04/10 10:45:52;;;;;;;3.67;1.40;;;12.60;99.90;;;;;;4529049;25;20581;-61